createdAt,value
2018-07-02T00:00:13.182Z,19.00
2018-07-02T00:02:41.617Z,19.00
2018-07-02T00:05:10.026Z,19.00
2018-07-02T00:07:38.492Z,19.00
2018-07-02T00:10:08.529Z,18.90
2018-07-02T00:12:36.907Z,18.80
2018-07-02T00:15:05.288Z,18.80
2018-07-02T00:17:33.664Z,18.70
2018-07-02T00:20:02.052Z,18.70
2018-07-02T00:22:30.445Z,18.70
2018-07-02T00:24:58.813Z,18.70
2018-07-02T00:27:27.205Z,18.60
2018-07-02T00:29:55.713Z,18.70
2018-07-02T00:32:24.090Z,18.60
2018-07-02T00:34:52.452Z,18.70
2018-07-02T00:39:48.821Z,18.60
2018-07-02T00:42:17.145Z,18.60
2018-07-02T00:44:45.457Z,18.60
2018-07-02T00:47:13.801Z,18.60
2018-07-02T00:49:42.158Z,18.60
2018-07-02T00:52:10.548Z,18.40
2018-07-02T00:54:39.026Z,18.40
2018-07-02T00:57:07.421Z,18.40
2018-07-02T00:59:35.775Z,18.40
2018-07-02T01:02:04.201Z,18.30
2018-07-02T01:04:32.688Z,18.20
2018-07-02T01:07:01.163Z,18.30
2018-07-02T01:09:29.511Z,18.20
2018-07-02T01:11:57.921Z,18.10
2018-07-02T01:14:26.334Z,18.00
2018-07-02T01:16:54.716Z,18.00
2018-07-02T01:19:23.046Z,17.90
2018-07-02T01:21:51.420Z,17.90
2018-07-02T01:24:19.819Z,17.90
2018-07-02T01:26:48.235Z,17.90
2018-07-02T01:29:16.583Z,17.90
2018-07-02T01:31:44.904Z,17.80
2018-07-02T01:34:13.294Z,17.80
2018-07-02T01:36:41.634Z,17.70
2018-07-02T01:39:10.877Z,17.70
2018-07-02T01:41:39.665Z,17.60
2018-07-02T01:44:08.194Z,17.70
2018-07-02T01:46:36.757Z,17.70
2018-07-02T01:49:05.117Z,17.70
2018-07-02T01:51:33.699Z,17.60
2018-07-02T01:54:03.019Z,17.60
2018-07-02T01:56:31.321Z,17.50
2018-07-02T01:58:59.655Z,17.50
2018-07-02T02:01:28.074Z,17.50
2018-07-02T02:03:56.390Z,17.40
2018-07-02T02:06:24.759Z,17.30
2018-07-02T02:08:53.148Z,17.30
2018-07-02T02:11:21.509Z,17.30
2018-07-02T02:13:49.901Z,17.30
2018-07-02T02:16:18.310Z,17.20
2018-07-02T02:18:46.665Z,17.20
2018-07-02T02:21:15.007Z,17.10
2018-07-02T02:23:43.370Z,17.10
2018-07-02T02:26:11.781Z,17.10
2018-07-02T02:28:40.226Z,17.10
2018-07-02T02:31:08.564Z,17.10
2018-07-02T02:33:36.913Z,17.00
2018-07-02T02:36:05.318Z,17.00
2018-07-02T05:59:51.727Z,18.50
2018-07-02T06:04:52.103Z,18.70
2018-07-02T06:07:26.322Z,18.80
2018-07-02T06:09:57.741Z,18.80
2018-07-02T06:12:26.805Z,18.80
2018-07-02T06:15:02.584Z,18.90
2018-07-02T06:17:33.373Z,19.10
2018-07-02T06:20:05.152Z,19.20
2018-07-02T06:22:34.724Z,19.20
2018-07-02T06:25:05.391Z,19.20
2018-07-02T06:27:35.136Z,19.30
2018-07-02T06:30:04.370Z,19.30
2018-07-02T06:32:35.759Z,19.20
2018-07-02T06:35:07.950Z,19.40
2018-07-02T06:37:37.153Z,19.60
2018-07-02T06:40:05.860Z,19.60
2018-07-02T06:42:37.588Z,19.70
2018-07-02T06:45:22.158Z,19.80
2018-07-02T06:47:50.929Z,19.70
2018-07-02T06:50:20.242Z,19.80
2018-07-02T06:52:50.595Z,19.80
2018-07-02T06:55:20.078Z,19.80
2018-07-02T06:57:48.540Z,20.00
2018-07-02T07:00:17.119Z,20.00
2018-07-02T07:02:45.850Z,20.00
2018-07-02T07:05:14.376Z,20.10
2018-07-02T07:07:43.255Z,20.20
2018-07-02T07:10:11.882Z,20.30
2018-07-02T07:12:40.610Z,20.40
2018-07-02T07:15:10.390Z,20.50
2018-07-02T07:17:38.982Z,20.60
2018-07-02T07:22:36.696Z,20.90
2018-07-02T07:25:05.404Z,20.90
2018-07-02T07:27:33.969Z,20.80
2018-07-02T07:32:30.768Z,20.90
2018-07-02T07:34:59.214Z,20.90
2018-07-02T07:37:28.056Z,21.10
2018-07-02T07:39:56.719Z,21.30
2018-07-02T07:42:25.632Z,21.40
2018-07-02T07:44:54.400Z,21.40
2018-07-02T07:47:22.930Z,21.50
2018-07-02T07:49:52.189Z,21.60
2018-07-02T07:52:21.422Z,21.80
2018-07-02T07:54:50.710Z,21.80
2018-07-02T07:57:20.460Z,21.90
2018-07-02T07:59:49.102Z,22.00
2018-07-02T08:02:17.927Z,22.10
2018-07-02T08:04:46.372Z,22.10
2018-07-02T08:07:14.991Z,22.10
2018-07-02T08:09:49.077Z,22.10
2018-07-02T08:14:48.111Z,22.60
2018-07-02T08:17:18.154Z,22.60
2018-07-02T08:19:55.581Z,22.50
2018-07-02T08:22:25.252Z,22.90
2018-07-02T08:24:54.493Z,23.10
2018-07-02T08:27:23.335Z,23.10
2018-07-02T08:29:53.985Z,23.10
2018-07-02T08:32:22.463Z,23.20
2018-07-02T08:34:51.905Z,23.20
2018-07-02T08:37:21.081Z,23.30
2018-07-02T08:42:23.096Z,23.20
2018-07-02T08:44:54.244Z,23.40
2018-07-02T08:47:28.313Z,23.70
2018-07-02T08:50:10.674Z,23.90
2018-07-02T08:55:26.520Z,24.10
2018-07-02T08:58:01.876Z,24.10
2018-07-02T09:00:38.778Z,23.90
2018-07-02T09:03:19.533Z,24.00
2018-07-02T09:18:45.922Z,23.90
2018-07-02T09:21:15.347Z,24.20
2018-07-02T09:23:51.275Z,24.30
2018-07-02T09:26:39.289Z,24.50
2018-07-02T09:31:56.543Z,24.90
2018-07-02T09:34:27.663Z,24.40
2018-07-02T09:48:55.980Z,24.80
2018-07-02T09:51:27.410Z,25.00
2018-07-02T09:53:57.653Z,25.20
2018-07-02T09:56:26.065Z,25.30
2018-07-02T09:58:58.773Z,25.50
2018-07-02T10:01:31.342Z,25.70
2018-07-02T10:04:13.118Z,25.60
2018-07-02T10:06:41.676Z,25.40
2018-07-02T10:09:14.751Z,25.40
2018-07-02T10:11:46.420Z,25.20
2018-07-02T10:14:22.114Z,25.20
2018-07-02T10:16:58.414Z,25.40
2018-07-02T10:19:26.741Z,25.60
2018-07-02T10:21:55.221Z,25.70
2018-07-02T10:24:23.614Z,25.70
2018-07-02T10:26:51.944Z,25.90
2018-07-02T10:29:20.430Z,25.60
2018-07-02T10:31:49.081Z,25.50
2018-07-02T10:34:17.433Z,25.50
2018-07-02T10:36:45.837Z,25.70
2018-07-02T10:39:14.311Z,25.90
2018-07-02T10:41:52.181Z,25.70
2018-07-02T10:44:21.433Z,25.80
2018-07-02T10:46:49.801Z,26.00
2018-07-02T10:49:19.414Z,26.00
2018-07-02T10:51:53.955Z,26.20
2018-07-02T10:54:23.120Z,26.30
2018-07-02T10:56:53.173Z,26.20
2018-07-02T10:59:21.674Z,26.50
2018-07-02T11:01:50.062Z,26.60
2018-07-02T11:04:18.505Z,26.40
2018-07-02T11:06:46.854Z,26.20
2018-07-02T11:09:15.721Z,26.30
2018-07-02T11:11:44.064Z,26.40
2018-07-02T11:17:25.121Z,26.70
2018-07-02T11:19:53.495Z,26.90
2018-07-02T11:22:21.831Z,27.10
2018-07-02T11:24:50.197Z,26.90
2018-07-02T11:27:18.651Z,26.70
2018-07-02T11:29:47.060Z,26.90
2018-07-02T11:32:15.409Z,27.00
2018-07-02T11:34:43.893Z,27.00
2018-07-02T11:37:12.279Z,26.90
2018-07-02T11:39:48.350Z,26.80
2018-07-02T11:42:16.776Z,26.90
2018-07-02T11:44:45.453Z,27.20
2018-07-02T11:47:13.821Z,27.10
2018-07-02T11:49:42.309Z,27.10
2018-07-02T11:52:10.829Z,27.20
2018-07-02T11:54:39.304Z,27.30
2018-07-02T11:57:07.689Z,27.40
2018-07-02T11:59:36.120Z,27.40
2018-07-02T12:02:04.496Z,27.10
2018-07-02T12:04:32.934Z,27.70
2018-07-02T12:07:01.451Z,27.90
2018-07-02T12:09:29.773Z,27.70
2018-07-02T12:11:58.112Z,27.70
2018-07-02T12:14:26.443Z,27.70
2018-07-02T12:16:54.876Z,27.70
2018-07-02T12:19:23.224Z,28.20
2018-07-02T12:21:51.545Z,28.30
2018-07-02T12:24:19.825Z,27.90
2018-07-02T12:26:48.146Z,27.80
2018-07-02T12:29:16.482Z,27.90
2018-07-02T12:31:44.785Z,28.40
2018-07-02T12:34:13.121Z,28.80
2018-07-02T12:36:41.541Z,28.80
2018-07-02T12:39:12.746Z,28.70
2018-07-02T12:41:41.901Z,28.80
2018-07-02T12:44:11.162Z,28.60
2018-07-02T12:46:39.472Z,28.60
2018-07-02T12:49:10.957Z,29.00
2018-07-02T12:51:39.701Z,29.00
2018-07-02T12:54:08.400Z,29.50
2018-07-02T12:56:36.674Z,29.70
2018-07-02T12:59:05.023Z,29.70
2018-07-02T13:01:33.318Z,29.50
2018-07-02T13:04:04.513Z,29.60
2018-07-02T13:06:32.964Z,29.70
2018-07-02T13:09:01.305Z,29.00
2018-07-02T13:11:29.600Z,28.90
2018-07-02T13:13:57.986Z,29.20
2018-07-02T13:16:31.129Z,29.10
2018-07-02T13:18:59.437Z,29.10
2018-07-02T13:21:27.801Z,29.40
2018-07-02T13:23:56.281Z,29.40
2018-07-02T13:26:24.581Z,29.40
2018-07-02T13:28:53.031Z,30.00
2018-07-02T13:31:21.343Z,30.50
2018-07-02T13:33:49.821Z,30.70
2018-07-02T13:36:18.995Z,30.50
2018-07-02T13:38:47.609Z,30.60
2018-07-02T13:41:18.726Z,30.50
2018-07-02T13:43:47.976Z,30.50
2018-07-02T13:46:17.477Z,30.70
2018-07-02T13:48:45.900Z,30.50
2018-07-02T13:51:14.254Z,30.60
2018-07-02T13:53:42.641Z,30.90
2018-07-02T13:56:10.956Z,31.10
2018-07-02T13:58:39.450Z,31.00
2018-07-02T14:01:07.768Z,31.10
2018-07-02T14:03:36.067Z,31.10
2018-07-02T14:06:04.398Z,31.40
2018-07-02T14:08:32.688Z,31.80
2018-07-02T14:11:01.025Z,31.50
2018-07-02T14:13:29.334Z,31.90
2018-07-02T14:15:57.638Z,32.20
2018-07-02T14:18:26.004Z,32.90
2018-07-02T14:20:54.365Z,33.30
2018-07-02T14:23:22.849Z,33.90
2018-07-02T14:25:51.160Z,34.80
2018-07-02T14:28:19.477Z,35.10
2018-07-02T14:30:48.827Z,34.80
2018-07-02T14:33:17.293Z,34.70
2018-07-02T14:35:45.770Z,34.70
2018-07-02T14:38:14.147Z,34.50
2018-07-02T14:40:42.469Z,34.90
2018-07-02T14:43:10.781Z,35.30
2018-07-02T14:45:39.131Z,35.70
2018-07-02T14:48:07.482Z,35.10
2018-07-02T14:50:35.787Z,35.60
2018-07-02T14:55:32.136Z,34.80
2018-07-02T14:58:00.478Z,34.90
2018-07-02T15:00:28.817Z,34.60
2018-07-02T15:02:57.213Z,34.90
2018-07-02T15:05:25.497Z,35.80
2018-07-02T15:07:53.845Z,35.60
2018-07-02T15:10:22.199Z,35.60
2018-07-02T15:12:50.534Z,35.70
2018-07-02T15:15:18.893Z,37.00
2018-07-02T15:17:47.206Z,38.40
2018-07-02T15:20:15.527Z,37.90
2018-07-02T15:22:44.881Z,38.10
2018-07-02T15:25:13.302Z,37.60
2018-07-02T15:27:42.685Z,37.50
2018-07-02T15:30:11.026Z,36.60
2018-07-02T15:32:39.390Z,36.40
2018-07-02T15:35:07.944Z,37.10
2018-07-02T15:37:40.057Z,37.50
2018-07-02T15:40:08.518Z,37.50
2018-07-02T15:42:36.831Z,37.20
2018-07-02T15:45:05.609Z,37.80
2018-07-02T15:47:46.884Z,37.20
2018-07-02T15:50:15.297Z,37.20
2018-07-02T15:52:43.858Z,37.20
2018-07-02T15:55:12.225Z,37.10
2018-07-02T15:57:40.761Z,38.00
2018-07-02T16:00:09.772Z,39.60
2018-07-02T16:02:38.297Z,39.60
2018-07-02T16:05:07.033Z,39.90
2018-07-02T16:07:35.434Z,39.70
2018-07-02T16:10:03.969Z,39.00
2018-07-02T16:12:32.406Z,38.30
2018-07-02T16:15:00.881Z,37.70
2018-07-02T16:17:29.618Z,37.90
2018-07-02T16:19:58.266Z,37.70
2018-07-02T16:22:27.397Z,37.80
2018-07-02T16:24:57.522Z,37.60
2018-07-02T17:03:51.389Z,36.10
2018-07-02T17:20:01.598Z,31.50
2018-07-02T17:22:31.014Z,31.00
2018-07-02T17:25:04.962Z,30.50
2018-07-02T17:27:33.978Z,30.10
2018-07-02T17:30:03.518Z,29.80
2018-07-02T17:32:33.325Z,29.80
2018-07-02T17:35:02.423Z,29.70
2018-07-02T17:37:31.164Z,29.70
2018-07-02T17:40:01.768Z,29.70
2018-07-02T17:42:30.589Z,29.70
2018-07-02T17:44:58.949Z,29.70
2018-07-02T17:47:27.737Z,29.50
2018-07-02T17:49:56.796Z,29.30
2018-07-02T17:52:26.510Z,29.10
2018-07-02T17:54:55.263Z,28.90
2018-07-02T17:57:24.728Z,28.90
2018-07-02T17:59:54.156Z,28.90
2018-07-02T18:02:25.296Z,28.90
2018-07-02T18:04:54.236Z,29.20
2018-07-02T18:07:24.053Z,29.40
2018-07-02T18:09:54.728Z,29.40
2018-07-02T18:12:26.175Z,29.40
2018-07-02T18:14:54.621Z,30.00
2018-07-02T18:17:24.008Z,31.80
2018-07-02T18:19:54.937Z,32.90
2018-07-02T18:22:24.448Z,32.90
2018-07-02T18:24:55.686Z,32.70
2018-07-02T18:27:24.658Z,32.90
2018-07-02T18:29:53.914Z,33.60
2018-07-02T18:32:25.013Z,33.50
2018-07-02T18:34:53.750Z,33.70
2018-07-02T18:37:26.285Z,32.90
2018-07-02T18:39:55.162Z,32.50
2018-07-02T18:42:24.728Z,31.80
2018-07-02T18:44:55.206Z,31.10
2018-07-02T18:47:31.884Z,30.40
2018-07-02T18:50:02.146Z,29.30
2018-07-02T18:52:32.549Z,28.60
2018-07-02T18:55:02.614Z,28.10
2018-07-02T18:57:31.527Z,27.60
2018-07-02T19:00:00.892Z,27.20
2018-07-02T19:02:31.071Z,27.10
2018-07-02T19:05:00.765Z,26.80
2018-07-02T19:07:29.570Z,26.50
2018-07-02T19:09:59.421Z,26.30
2018-07-02T19:12:28.357Z,26.00
2018-07-02T19:15:07.012Z,26.00
2018-07-02T19:17:48.147Z,25.80
2018-07-02T19:23:54.633Z,25.80
2018-07-02T19:26:23.318Z,25.60
2018-07-02T19:28:52.152Z,25.50
2018-07-02T19:31:20.667Z,25.20
2018-07-02T19:33:49.076Z,25.20
2018-07-02T19:36:19.172Z,25.10
2018-07-02T19:38:47.953Z,24.90
2018-07-02T19:41:16.477Z,24.90
2018-07-02T19:43:44.989Z,24.70
2018-07-02T19:46:13.423Z,24.60
2018-07-02T19:48:42.106Z,24.60
2018-07-02T19:51:10.601Z,24.50
2018-07-02T19:53:38.989Z,24.30
2018-07-02T19:56:07.458Z,24.10
2018-07-02T19:58:35.797Z,24.00
2018-07-02T20:01:04.209Z,23.90
2018-07-02T20:03:32.563Z,23.90
2018-07-02T20:06:00.928Z,23.90
2018-07-02T20:08:29.266Z,23.90
2018-07-02T20:10:58.095Z,23.70
2018-07-02T20:13:26.522Z,23.60
2018-07-02T20:15:56.105Z,23.50
2018-07-02T20:18:24.882Z,23.50
2018-07-02T20:20:53.342Z,23.50
2018-07-02T20:23:22.299Z,23.30
2018-07-02T20:25:50.686Z,23.30
2018-07-02T20:28:19.139Z,23.30
2018-07-02T20:30:47.489Z,23.10
2018-07-02T20:33:21.256Z,23.10
2018-07-02T20:35:55.376Z,23.10
2018-07-02T20:38:25.894Z,23.10
2018-07-02T20:43:24.947Z,22.90
2018-07-02T20:45:53.837Z,22.80
2018-07-02T20:48:26.215Z,22.80
2018-07-02T20:50:55.818Z,22.80
2018-07-02T20:53:44.316Z,22.70
2018-07-02T20:56:14.947Z,22.60
2018-07-02T20:58:45.739Z,22.50
2018-07-02T21:01:16.755Z,22.50
2018-07-02T21:03:45.946Z,22.40
2018-07-02T21:06:14.626Z,22.30
2018-07-02T21:08:44.514Z,22.30
2018-07-02T21:11:13.592Z,22.20
2018-07-02T21:13:46.607Z,22.00
2018-07-02T21:16:31.653Z,22.00
2018-07-02T21:19:00.364Z,22.00
2018-07-02T21:24:07.504Z,21.90
2018-07-02T21:26:36.068Z,21.90
2018-07-02T21:29:05.351Z,21.90
2018-07-02T21:31:33.803Z,21.80
2018-07-02T21:34:02.525Z,21.70
2018-07-02T21:36:32.189Z,21.70
2018-07-02T21:39:01.437Z,21.60
2018-07-02T21:41:30.174Z,21.60
2018-07-02T21:43:58.509Z,21.50
2018-07-02T21:46:27.246Z,21.40
2018-07-02T21:48:55.654Z,21.40
2018-07-02T21:51:24.047Z,21.30
2018-07-02T21:53:52.399Z,21.30
2018-07-02T21:56:20.870Z,21.20
2018-07-02T21:58:49.280Z,21.20
2018-07-02T22:01:21.146Z,21.20
2018-07-02T22:03:50.058Z,21.20
2018-07-02T22:06:19.022Z,21.00
2018-07-02T22:08:47.962Z,20.90
2018-07-02T22:11:16.818Z,20.90
2018-07-02T22:13:45.653Z,20.90
2018-07-02T22:16:14.569Z,20.90
2018-07-02T22:18:43.089Z,20.90
2018-07-02T22:21:11.457Z,20.90
2018-07-02T22:23:39.787Z,20.80
2018-07-02T22:26:08.270Z,20.80
2018-07-02T22:28:36.674Z,20.70
2018-07-02T22:31:05.286Z,20.60
2018-07-02T22:33:33.668Z,20.60
2018-07-02T22:36:02.043Z,20.60
2018-07-02T22:38:30.547Z,20.60
2018-07-02T22:43:27.187Z,20.30
2018-07-02T22:45:55.553Z,20.30
2018-07-02T22:48:23.945Z,20.20
2018-07-02T22:50:52.366Z,20.20
2018-07-02T22:53:20.806Z,20.20
2018-07-02T22:55:58.137Z,20.10
2018-07-02T22:58:26.516Z,20.00
2018-07-02T23:00:55.334Z,20.00
2018-07-02T23:03:24.012Z,20.00
2018-07-02T23:05:52.626Z,20.00
2018-07-02T23:08:20.997Z,19.90
2018-07-02T23:10:49.603Z,19.90
2018-07-02T23:13:18.063Z,19.80
2018-07-02T23:15:47.757Z,19.70
2018-07-02T23:18:16.456Z,19.70
2018-07-02T23:32:07.841Z,19.30
2018-07-02T23:34:36.129Z,19.30
2018-07-02T23:37:05.096Z,19.30
2018-07-02T23:39:33.408Z,19.20
2018-07-02T23:42:01.709Z,19.10
2018-07-02T23:44:31.558Z,19.00
2018-07-02T23:47:01.259Z,19.00
2018-07-02T23:49:31.297Z,18.90
2018-07-02T23:52:00.779Z,18.80
2018-07-02T23:54:29.841Z,18.90
2018-07-02T23:56:58.136Z,18.90
